createdAt,value
2023-04-13T00:00:21.496Z,96114.66
2023-04-13T00:02:54.309Z,96120.44
2023-04-13T00:05:22.831Z,96114.16
2023-04-13T00:07:50.812Z,96125.41
2023-04-13T00:10:20.671Z,96134.84
2023-04-13T00:12:48.639Z,96133.56
2023-04-13T00:15:19.220Z,96120.28
2023-04-13T00:17:47.353Z,96111.09
2023-04-13T00:20:15.592Z,96105.16
2023-04-13T00:22:44.058Z,96129.34
2023-04-13T00:25:14.257Z,96123.16
2023-04-13T00:27:42.482Z,96131.13
2023-04-13T00:30:11.452Z,96129.16
2023-04-13T00:32:42.271Z,96139.81
2023-04-13T00:35:11.011Z,96139.81
2023-04-13T00:37:38.653Z,96131.72
2023-04-13T00:40:07.945Z,96131.72
2023-04-13T00:42:35.596Z,96138.06
2023-04-13T00:45:03.332Z,96141.75
2023-04-13T00:47:35.604Z,96140.97
2023-04-13T00:50:07.202Z,96131.38
2023-04-13T00:52:38.184Z,96141.16
2023-04-13T00:55:07.280Z,96148.28
2023-04-13T00:57:36.526Z,96148.69
2023-04-13T01:00:08.509Z,96138.88
2023-04-13T01:02:36.413Z,96126.00
2023-04-13T01:05:06.906Z,96130.44
2023-04-13T01:07:38.097Z,96152.84
2023-04-13T01:10:11.637Z,96142.22
2023-04-13T01:12:42.940Z,96148.13
2023-04-13T01:15:14.281Z,96147.31
2023-04-13T01:17:46.011Z,96151.84
2023-04-13T01:20:16.397Z,96162.38
2023-04-13T01:22:50.764Z,96168.44
2023-04-13T01:25:38.944Z,96171.91
2023-04-13T01:28:09.331Z,96176.03
2023-04-13T01:30:38.812Z,96182.75
2023-04-13T01:33:07.046Z,96173.25
2023-04-13T01:35:38.056Z,96166.72
2023-04-13T01:38:08.588Z,96161.03
2023-04-13T01:40:41.748Z,96158.78
2023-04-13T01:43:12.810Z,96160.84
2023-04-13T01:45:49.111Z,96152.81
2023-04-13T01:48:21.255Z,96153.06
2023-04-13T01:51:07.277Z,96169.19
2023-04-13T01:53:44.631Z,96172.88
2023-04-13T01:56:16.700Z,96173.91
2023-04-13T01:58:47.220Z,96194.31
2023-04-13T02:01:15.902Z,96189.25
2023-04-13T02:03:45.390Z,96184.97
2023-04-13T02:06:13.892Z,96182.56
2023-04-13T02:08:42.912Z,96172.09
2023-04-13T02:11:12.464Z,96167.44
2023-04-13T02:13:40.034Z,96171.31
2023-04-13T02:16:10.422Z,96177.66
2023-04-13T02:18:38.683Z,96175.59
2023-04-13T02:21:09.490Z,96170.75
2023-04-13T02:23:37.708Z,96168.91
2023-04-13T02:26:07.965Z,96176.25
2023-04-13T02:28:35.770Z,96178.50
2023-04-13T02:31:03.928Z,96181.56
2023-04-13T02:33:33.655Z,96191.97
2023-04-13T02:36:02.573Z,96167.88
2023-04-13T02:38:34.078Z,96178.69
2023-04-13T02:41:08.917Z,96185.03
2023-04-13T02:43:36.594Z,96187.91
2023-04-13T02:46:04.457Z,96189.75
2023-04-13T02:48:38.800Z,96186.28
2023-04-13T02:51:07.655Z,96201.56
2023-04-13T02:53:39.888Z,96212.59
2023-04-13T02:56:09.566Z,96203.44
2023-04-13T02:58:37.834Z,96201.81
2023-04-13T03:01:09.379Z,96215.69
2023-04-13T03:03:40.269Z,96219.78
2023-04-13T03:06:08.406Z,96226.28
2023-04-13T03:08:46.291Z,96226.69
2023-04-13T03:11:19.701Z,96231.81
2023-04-13T03:13:54.230Z,96216.09
2023-04-13T03:16:22.043Z,96205.50
2023-04-13T03:18:51.507Z,96173.88
2023-04-13T03:21:19.100Z,96163.06
2023-04-13T03:23:58.509Z,96170.59
2023-04-13T03:26:26.655Z,96157.16
2023-04-13T03:28:56.920Z,96160.63
2023-04-13T03:31:26.044Z,96163.91
2023-04-13T03:33:55.482Z,96175.94
2023-04-13T03:36:23.056Z,96162.88
2023-04-13T03:38:50.731Z,96152.28
2023-04-13T03:41:19.085Z,96176.94
2023-04-13T03:43:48.137Z,96187.97
2023-04-13T03:46:16.004Z,96202.06
2023-04-13T03:48:44.256Z,96208.38
2023-04-13T03:51:21.754Z,96198.16
2023-04-13T03:53:51.659Z,96207.16
2023-04-13T03:56:23.734Z,96206.34
2023-04-13T03:58:51.605Z,96197.16
2023-04-13T04:01:24.209Z,96196.94
2023-04-13T04:03:55.897Z,96194.50
2023-04-13T04:06:27.147Z,96202.25
2023-04-13T04:09:06.790Z,96208.16
2023-04-13T04:11:42.544Z,96209.59
2023-04-13T04:14:11.508Z,96211.63
2023-04-13T04:16:43.279Z,96204.91
2023-04-13T04:19:14.270Z,96200.81
2023-04-13T04:21:44.689Z,96209.59
2023-04-13T04:24:20.493Z,96222.41
2023-04-13T04:26:50.139Z,96231.81
2023-04-13T04:29:22.049Z,96227.72
2023-04-13T04:31:54.061Z,96220.81
2023-04-13T04:34:24.274Z,96225.69
2023-04-13T04:36:53.963Z,96221.00
2023-04-13T04:39:23.693Z,96224.69
2023-04-13T04:42:04.121Z,96228.56
2023-04-13T04:44:33.548Z,96229.16
2023-04-13T04:47:06.366Z,96226.50
2023-04-13T04:49:41.781Z,96250.13
2023-04-13T04:52:12.581Z,96245.44
2023-04-13T04:54:41.106Z,96236.28
2023-04-13T04:57:10.415Z,96245.47
2023-04-13T04:59:40.765Z,96249.13
2023-04-13T05:02:08.821Z,96252.00
2023-04-13T05:04:36.808Z,96250.56
2023-04-13T05:07:05.498Z,96252.59
2023-04-13T05:09:39.562Z,96260.94
2023-04-13T05:12:08.050Z,96246.69
2023-04-13T05:14:39.025Z,96254.03
2023-04-13T05:17:07.295Z,96259.97
2023-04-13T05:19:39.347Z,96261.38
2023-04-13T05:22:25.482Z,96246.28
2023-04-13T05:25:01.463Z,96255.69
2023-04-13T05:27:31.062Z,96257.72
2023-04-13T05:29:59.629Z,96271.56
2023-04-13T05:32:28.609Z,96254.63
2023-04-13T05:34:59.644Z,96264.63
2023-04-13T05:37:28.226Z,96254.88
2023-04-13T05:39:56.412Z,96264.41
2023-04-13T05:42:31.427Z,96265.84
2023-04-13T05:44:59.985Z,96263.00
2023-04-13T05:47:29.876Z,96273.41
2023-04-13T05:50:04.016Z,96275.63
2023-04-13T05:52:32.365Z,96276.88
2023-04-13T05:54:59.919Z,96276.88
2023-04-13T05:57:27.660Z,96281.75
2023-04-13T05:59:57.361Z,96290.72
2023-04-13T06:02:28.325Z,96289.94
2023-04-13T06:04:56.454Z,96293.19
2023-04-13T06:07:24.332Z,96292.16
2023-04-13T06:09:52.136Z,96287.47
2023-04-13T06:12:20.312Z,96286.66
2023-04-13T06:14:48.574Z,96282.59
2023-04-13T06:17:17.707Z,96290.75
2023-04-13T06:19:45.364Z,96300.56
2023-04-13T06:22:13.541Z,96287.28
2023-04-13T06:24:42.326Z,96293.00
2023-04-13T06:27:12.719Z,96285.06
2023-04-13T06:29:43.915Z,96278.13
2023-04-13T06:32:12.369Z,96276.28
2023-04-13T06:34:41.769Z,96263.44
2023-04-13T06:37:09.854Z,96273.00
2023-04-13T06:39:49.308Z,96279.94
2023-04-13T06:42:19.294Z,96285.06
2023-04-13T06:44:58.871Z,96279.78
2023-04-13T06:47:32.078Z,96275.88
2023-04-13T06:50:04.249Z,96288.94
2023-04-13T06:52:32.325Z,96291.78
2023-04-13T06:54:59.991Z,96294.03
2023-04-13T06:57:33.882Z,96290.16
2023-04-13T07:00:01.936Z,96313.19
2023-04-13T07:02:30.720Z,96302.22
2023-04-13T07:04:59.374Z,96309.75
2023-04-13T07:07:29.603Z,96323.63
2023-04-13T07:09:58.832Z,96327.50
2023-04-13T07:12:27.590Z,96325.66
2023-04-13T07:14:55.477Z,96330.56
2023-04-13T07:17:24.301Z,96327.50
2023-04-13T07:19:51.923Z,96334.44
2023-04-13T07:22:19.499Z,96341.19
2023-04-13T07:24:50.380Z,96339.94
2023-04-13T07:27:20.298Z,96319.13
2023-04-13T07:29:49.017Z,96342.41
2023-04-13T07:32:21.168Z,96347.50
2023-04-13T07:34:48.901Z,96340.75
2023-04-13T07:37:17.037Z,96332.00
2023-04-13T07:39:44.850Z,96333.81
2023-04-13T07:42:14.076Z,96325.44
2023-04-13T07:44:47.050Z,96335.63
2023-04-13T07:47:14.747Z,96337.84
2023-04-13T07:49:44.704Z,96339.91
2023-04-13T07:52:16.067Z,96351.31
2023-04-13T07:54:44.004Z,96358.06
2023-04-13T07:57:14.154Z,96365.63
2023-04-13T07:59:49.603Z,96369.91
2023-04-13T08:02:18.221Z,96359.47
2023-04-13T08:04:49.312Z,96363.19
2023-04-13T08:07:23.102Z,96373.59
2023-04-13T08:09:52.494Z,96339.06
2023-04-13T08:12:22.990Z,96368.50
2023-04-13T08:14:53.101Z,96382.59
2023-04-13T08:17:22.350Z,96375.22
2023-04-13T08:19:50.083Z,96382.56
2023-04-13T08:22:18.872Z,96382.16
2023-04-13T08:24:46.729Z,96388.69
2023-04-13T08:27:14.688Z,96392.38
2023-04-13T08:29:43.537Z,96385.41
2023-04-13T08:32:11.482Z,96382.19
2023-04-13T08:34:39.156Z,96386.88
2023-04-13T08:37:06.774Z,96384.41
2023-04-13T08:39:36.337Z,96391.34
2023-04-13T08:42:04.246Z,96382.16
2023-04-13T08:44:36.215Z,96389.09
2023-04-13T08:47:05.271Z,96394.84
2023-04-13T08:49:35.765Z,96396.88
2023-04-13T08:52:14.537Z,96396.84
2023-04-13T08:54:45.786Z,96399.31
2023-04-13T08:57:21.215Z,96403.81
2023-04-13T08:59:51.650Z,96398.09
2023-04-13T09:02:23.859Z,96391.56
2023-04-13T09:04:55.891Z,96397.88
2023-04-13T09:07:27.475Z,96389.09
2023-04-13T09:10:00.340Z,96390.69
2023-04-13T09:12:28.394Z,96398.66
2023-04-13T09:14:56.114Z,96402.97
2023-04-13T09:17:28.858Z,96407.25
2023-04-13T09:19:58.245Z,96401.69
2023-04-13T09:22:25.965Z,96398.84
2023-04-13T09:24:53.594Z,96400.91
2023-04-13T09:27:21.759Z,96408.25
2023-04-13T09:29:50.489Z,96405.63
2023-04-13T09:32:20.704Z,96406.03
2023-04-13T09:35:00.038Z,96413.38
2023-04-13T09:37:34.194Z,96404.59
2023-04-13T09:40:11.809Z,96411.91
2023-04-13T09:42:40.127Z,96406.38
2023-04-13T09:45:08.566Z,96403.53
2023-04-13T09:47:36.974Z,96413.16
2023-04-13T09:50:07.037Z,96408.22
2023-04-13T09:52:34.738Z,96410.66
2023-04-13T09:55:02.442Z,96407.75
2023-04-13T09:57:31.169Z,96411.59
2023-04-13T10:00:01.607Z,96397.03
2023-04-13T10:02:40.316Z,96405.81
2023-04-13T10:05:11.459Z,96412.63
2023-04-13T10:07:40.013Z,96397.28
2023-04-13T10:10:09.016Z,96404.81
2023-04-13T10:12:37.984Z,96407.69
2023-04-13T10:15:12.386Z,96401.13
2023-04-13T10:17:46.169Z,96408.84
2023-04-13T10:20:15.655Z,96418.09
2023-04-13T10:22:45.361Z,96417.50
2023-04-13T10:25:29.193Z,96413.25
2023-04-13T10:28:00.818Z,96418.75
2023-04-13T10:30:28.778Z,96412.25
2023-04-13T10:33:03.709Z,96406.50
2023-04-13T10:35:37.015Z,96407.31
2023-04-13T10:38:05.015Z,96408.50
2023-04-13T10:40:43.069Z,96413.13
2023-04-13T10:43:10.662Z,96408.03
2023-04-13T10:45:38.265Z,96399.63
2023-04-13T10:48:06.461Z,96417.00
2023-04-13T10:50:35.739Z,96421.03
2023-04-13T10:53:05.173Z,96421.06
2023-04-13T10:55:33.343Z,96422.41
2023-04-13T10:58:02.399Z,96422.19
2023-04-13T11:00:45.511Z,96421.31
2023-04-13T11:03:15.802Z,96408.00
2023-04-13T11:05:46.070Z,96418.00
2023-04-13T11:08:18.720Z,96406.09
2023-04-13T11:10:51.420Z,96406.50
2023-04-13T11:13:18.991Z,96407.72
2023-04-13T11:15:46.796Z,96404.50
2023-04-13T11:18:14.331Z,96413.03
2023-04-13T11:20:42.241Z,96415.56
2023-04-13T11:23:18.114Z,96419.00
2023-04-13T11:25:54.694Z,96425.41
2023-04-13T11:28:23.366Z,96423.53
2023-04-13T11:30:56.094Z,96418.28
2023-04-13T11:33:27.462Z,96413.16
2023-04-13T11:35:56.139Z,96418.63
2023-04-13T11:38:25.214Z,96417.59
2023-04-13T11:40:58.905Z,96414.31
2023-04-13T11:43:29.419Z,96415.47
2023-04-13T11:45:57.231Z,96416.78
2023-04-13T11:48:26.242Z,96427.22
2023-04-13T11:50:53.948Z,96429.59
2023-04-13T11:53:21.540Z,96441.28
2023-04-13T11:55:53.691Z,96448.84
2023-04-13T11:58:21.726Z,96446.19
2023-04-13T12:00:49.596Z,96437.31
2023-04-13T12:05:51.094Z,96421.69
2023-04-13T12:08:24.335Z,96428.38
2023-04-13T12:11:25.334Z,96418.88
2023-04-13T12:14:05.995Z,96413.19
2023-04-13T12:19:09.769Z,96418.59
2023-04-13T12:21:39.879Z,96423.09
2023-04-13T12:24:08.308Z,96425.63
2023-04-13T12:29:10.761Z,96430.28
2023-04-13T12:31:39.955Z,96431.81
2023-04-13T12:34:08.581Z,96433.00
2023-04-13T12:36:36.886Z,96432.66
2023-04-13T12:39:05.381Z,96434.22
2023-04-13T12:41:34.599Z,96437.84
2023-04-13T12:44:03.421Z,96431.41
2023-04-13T12:46:30.933Z,96438.03
2023-04-13T12:48:58.759Z,96439.50
2023-04-13T12:51:26.702Z,96436.38
2023-04-13T12:53:54.218Z,96435.19
2023-04-13T12:56:22.327Z,96431.56
2023-04-13T12:58:49.958Z,96440.06
2023-04-13T13:01:18.846Z,96433.44
2023-04-13T13:03:46.467Z,96439.88
2023-04-13T13:06:14.023Z,96445.28
2023-04-13T13:08:42.594Z,96441.41
2023-04-13T13:11:10.403Z,96435.97
2023-04-13T13:13:37.872Z,96439.25
2023-04-13T13:16:06.196Z,96440.09
2023-04-13T13:18:49.189Z,96447.59
2023-04-13T13:21:18.544Z,96447.78
2023-04-13T13:23:46.410Z,96451.69
2023-04-13T13:28:46.067Z,96451.97
2023-04-13T13:31:13.659Z,96455.47
2023-04-13T13:33:42.508Z,96440.69
2023-04-13T13:36:11.255Z,96438.69
2023-04-13T13:38:38.891Z,96435.59
2023-04-13T13:41:06.481Z,96439.44
2023-04-13T13:43:33.992Z,96440.41
2023-04-13T13:46:01.675Z,96446.84
2023-04-13T13:48:29.333Z,96449.31
2023-04-13T13:51:08.026Z,96450.53
2023-04-13T13:53:36.566Z,96451.28
2023-04-13T13:56:04.405Z,96446.38
2023-04-13T13:58:32.002Z,96448.59
2023-04-13T14:01:00.035Z,96446.16
2023-04-13T14:03:27.830Z,96451.06
2023-04-13T14:05:55.739Z,96454.25
2023-04-13T14:08:24.549Z,96454.50
2023-04-13T14:10:52.107Z,96457.19
2023-04-13T14:13:19.583Z,96460.53
2023-04-13T14:15:48.382Z,96472.78
2023-04-13T14:18:16.290Z,96466.31
2023-04-13T14:20:44.226Z,96467.72
2023-04-13T14:23:11.869Z,96469.03
2023-04-13T14:25:41.048Z,96470.31
2023-04-13T14:28:09.073Z,96466.97
2023-04-13T14:30:36.833Z,96473.47
2023-04-13T14:33:07.602Z,96468.00
2023-04-13T14:35:35.421Z,96469.28
2023-04-13T14:38:03.053Z,96475.63
2023-04-13T14:40:31.182Z,96473.81
2023-04-13T14:43:00.031Z,96477.78
2023-04-13T14:45:28.561Z,96477.22
2023-04-13T14:47:56.301Z,96473.84
2023-04-13T14:50:24.184Z,96483.88
2023-04-13T14:52:52.275Z,96484.97
2023-04-13T14:55:20.316Z,96484.69
2023-04-13T14:57:48.057Z,96482.47
2023-04-13T15:00:21.674Z,96482.84
2023-04-13T15:02:50.505Z,96484.09
2023-04-13T15:05:18.671Z,96485.72
2023-04-13T15:07:47.214Z,96483.22
2023-04-13T15:10:14.829Z,96479.78
2023-04-13T15:12:42.448Z,96486.16
2023-04-13T15:15:11.092Z,96477.34
2023-04-13T15:17:40.075Z,96485.13
2023-04-13T15:20:10.487Z,96492.69
2023-04-13T15:22:38.052Z,96492.81
2023-04-13T15:25:06.505Z,96501.78
2023-04-13T15:27:36.876Z,96499.44
2023-04-13T15:30:04.852Z,96496.03
2023-04-13T15:32:34.929Z,96491.13
2023-04-13T15:35:04.296Z,96500.00
2023-04-13T15:37:32.111Z,96494.31
2023-04-13T15:39:59.728Z,96493.03
2023-04-13T15:42:27.329Z,96494.59
2023-04-13T15:44:55.218Z,96498.81
2023-04-13T15:47:23.443Z,96492.63
2023-04-13T15:49:50.988Z,96488.47
2023-04-13T15:52:19.867Z,96483.00
2023-04-13T15:54:47.733Z,96480.53
2023-04-13T15:57:15.855Z,96477.78
2023-04-13T15:59:43.658Z,96489.56
2023-04-13T16:02:22.662Z,96495.72
2023-04-13T16:04:50.994Z,96490.81
2023-04-13T16:07:20.092Z,96486.31
2023-04-13T16:09:51.196Z,96494.13
2023-04-13T16:12:18.733Z,96486.13
2023-04-13T16:14:46.244Z,96490.06
2023-04-13T16:17:14.721Z,96481.63
2023-04-13T16:19:47.332Z,96478.00
2023-04-13T16:22:15.738Z,96477.56
2023-04-13T16:24:45.160Z,96472.81
2023-04-13T16:27:15.522Z,96465.25
2023-04-13T16:29:43.396Z,96466.00
2023-04-13T16:32:11.032Z,96466.25
2023-04-13T16:34:38.663Z,96459.47
2023-04-13T16:37:06.689Z,96460.88
2023-04-13T16:39:34.234Z,96450.22
2023-04-13T16:42:03.248Z,96444.88
2023-04-13T16:44:30.739Z,96452.81
2023-04-13T16:46:58.385Z,96449.50
2023-04-13T16:49:26.245Z,96461.19
2023-04-13T16:51:53.762Z,96468.22
2023-04-13T16:54:21.292Z,96472.78
2023-04-13T16:56:48.959Z,96481.59
2023-04-13T16:59:17.830Z,96497.50
2023-04-13T17:01:45.767Z,96512.00
2023-04-13T17:04:13.740Z,96507.38
2023-04-13T17:06:41.259Z,96511.22
2023-04-13T17:09:09.859Z,96515.59
2023-04-13T17:11:37.757Z,96532.53
2023-04-13T17:14:05.310Z,96533.16
2023-04-13T17:16:34.184Z,96539.13
2023-04-13T17:19:02.122Z,96544.47
2023-04-13T17:21:30.926Z,96542.69
2023-04-13T17:23:58.448Z,96550.22
2023-04-13T17:26:26.057Z,96554.38
2023-04-13T17:28:53.679Z,96555.00
2023-04-13T17:31:22.004Z,96557.41
2023-04-13T17:33:51.322Z,96559.72
2023-04-13T17:36:18.953Z,96557.59
2023-04-13T17:38:46.474Z,96563.56
2023-04-13T17:41:13.975Z,96571.81
2023-04-13T17:43:41.706Z,96564.69
2023-04-13T17:46:09.268Z,96571.88
2023-04-13T17:48:36.808Z,96580.47
2023-04-13T17:51:12.258Z,96575.34
2023-04-13T17:53:40.029Z,96575.97
2023-04-13T17:56:07.863Z,96583.97
2023-04-13T17:58:35.740Z,96583.16
2023-04-13T18:01:07.762Z,96580.47
2023-04-13T18:03:35.838Z,96584.97
2023-04-13T18:06:06.295Z,96593.78
2023-04-13T18:08:33.977Z,96590.97
2023-04-13T18:11:01.693Z,96596.91
2023-04-13T18:13:31.394Z,96602.28
2023-04-13T18:15:59.261Z,96594.28
2023-04-13T18:18:28.515Z,96604.38
2023-04-13T18:20:56.531Z,96604.38
2023-04-13T18:23:25.578Z,96612.16
2023-04-13T18:25:53.330Z,96607.44
2023-04-13T18:28:21.066Z,96611.53
2023-04-13T18:30:48.761Z,96617.09
2023-04-13T18:33:16.257Z,96616.66
2023-04-13T18:35:43.831Z,96620.53
2023-04-13T18:38:11.460Z,96636.53
2023-04-13T18:40:40.538Z,96635.13
2023-04-13T18:43:08.698Z,96633.47
2023-04-13T18:45:36.244Z,96625.50
2023-04-13T18:48:04.200Z,96630.19
2023-04-13T18:50:31.777Z,96623.66
2023-04-13T18:52:59.312Z,96627.94
2023-04-13T18:55:28.493Z,96631.25
2023-04-13T18:57:57.472Z,96629.81
2023-04-13T19:00:25.350Z,96636.16
2023-04-13T19:02:53.283Z,96626.50
2023-04-13T19:05:20.986Z,96626.75
2023-04-13T19:07:57.106Z,96624.91
2023-04-13T19:10:24.993Z,96620.44
2023-04-13T19:12:52.639Z,96609.16
2023-04-13T19:15:22.205Z,96611.66
2023-04-13T19:17:52.011Z,96605.28
2023-04-13T19:20:19.889Z,96611.66
2023-04-13T19:22:53.513Z,96610.59
2023-04-13T19:25:21.697Z,96607.13
2023-04-13T19:27:50.155Z,96612.22
2023-04-13T19:30:19.642Z,96610.41
2023-04-13T19:32:49.850Z,96608.97
2023-04-13T19:35:18.541Z,96617.38
2023-04-13T19:37:47.216Z,96607.13
2023-04-13T19:40:15.191Z,96617.19
2023-04-13T19:42:43.752Z,96614.31
2023-04-13T19:45:12.981Z,96622.50
2023-04-13T19:47:41.199Z,96628.00
2023-04-13T19:50:12.589Z,96633.34
2023-04-13T19:52:41.446Z,96630.06
2023-04-13T19:55:10.846Z,96639.31
2023-04-13T19:57:42.032Z,96642.38
2023-04-13T20:00:17.167Z,96633.78
2023-04-13T20:02:46.987Z,96642.38
2023-04-13T20:05:16.677Z,96635.81
2023-04-13T20:07:44.259Z,96638.06
2023-04-13T20:10:13.020Z,96639.28
2023-04-13T20:12:40.535Z,96642.13
2023-04-13T20:15:08.847Z,96627.00
2023-04-13T20:17:38.907Z,96622.50
2023-04-13T20:20:08.201Z,96630.50
2023-04-13T20:22:37.181Z,96624.75
2023-04-13T20:25:05.786Z,96629.44
2023-04-13T20:27:34.204Z,96616.34
2023-04-13T20:30:01.811Z,96613.47
2023-04-13T20:32:30.448Z,96610.41
2023-04-13T20:34:58.005Z,96614.09
2023-04-13T20:37:25.543Z,96621.06
2023-04-13T20:39:55.362Z,96619.22
2023-04-13T20:42:23.440Z,96623.13
2023-04-13T20:44:57.242Z,96615.38
2023-04-13T20:47:25.850Z,96615.16
2023-04-13T20:49:54.516Z,96616.16
2023-04-13T20:52:23.133Z,96619.06
2023-04-13T20:54:51.885Z,96621.72
2023-04-13T20:57:21.056Z,96619.66
2023-04-13T20:59:48.937Z,96626.00
2023-04-13T21:02:16.649Z,96618.81
2023-04-13T21:04:44.369Z,96626.34
2023-04-13T21:07:15.174Z,96637.00
2023-04-13T21:09:42.996Z,96630.88
2023-04-13T21:12:10.629Z,96629.88
2023-04-13T21:14:39.449Z,96629.00
2023-04-13T21:17:06.914Z,96637.41
2023-04-13T21:19:37.519Z,96639.88
2023-04-13T21:22:05.459Z,96653.59
2023-04-13T21:24:33.002Z,96648.66
2023-04-13T21:27:01.309Z,96652.16
2023-04-13T21:29:28.876Z,96641.50
2023-04-13T21:31:58.084Z,96621.47
2023-04-13T21:34:27.197Z,96613.50
2023-04-13T21:36:54.887Z,96603.25
2023-04-13T21:39:22.417Z,96598.38
2023-04-13T21:41:49.918Z,96590.00
2023-04-13T21:44:29.312Z,96581.19
2023-04-13T21:46:59.198Z,96574.22
2023-04-13T21:49:27.153Z,96574.22
2023-04-13T21:51:54.687Z,96566.69
2023-04-13T21:54:22.309Z,96579.16
2023-04-13T21:56:50.021Z,96569.72
2023-04-13T21:59:17.567Z,96551.31
2023-04-13T22:01:45.751Z,96551.97
2023-04-13T22:04:15.031Z,96556.06
2023-04-13T22:06:42.620Z,96565.66
2023-04-13T22:09:10.158Z,96569.31
2023-04-13T22:11:37.675Z,96573.19
2023-04-13T22:14:05.505Z,96589.53
2023-04-13T22:16:33.084Z,96594.47
2023-04-13T22:19:00.793Z,96607.13
2023-04-13T22:21:29.856Z,96611.38
2023-04-13T22:23:57.344Z,96620.56
2023-04-13T22:26:26.212Z,96626.88
2023-04-13T22:28:53.787Z,96632.00
2023-04-13T22:31:21.376Z,96634.84
2023-04-13T22:33:48.926Z,96637.66
2023-04-13T22:36:17.528Z,96635.47
2023-04-13T22:38:46.404Z,96638.72
2023-04-13T22:41:13.977Z,96643.63
2023-04-13T22:43:41.481Z,96642.97
2023-04-13T22:46:09.102Z,96651.16
2023-04-13T22:48:36.631Z,96653.59
2023-04-13T22:51:04.617Z,96651.97
2023-04-13T22:53:32.257Z,96652.78
2023-04-13T22:56:01.453Z,96649.06
2023-04-13T22:58:29.081Z,96648.19
2023-04-13T23:00:56.614Z,96643.50
2023-04-13T23:03:24.383Z,96645.75
2023-04-13T23:05:52.044Z,96635.84
2023-04-13T23:08:19.516Z,96632.44
2023-04-13T23:10:47.223Z,96642.22
2023-04-13T23:13:16.243Z,96641.78
2023-04-13T23:15:43.737Z,96644.41
2023-04-13T23:18:11.258Z,96639.09
2023-04-13T23:20:38.719Z,96634.44
2023-04-13T23:23:06.203Z,96628.94
2023-04-13T23:25:33.737Z,96637.50
2023-04-13T23:28:01.264Z,96625.22
2023-04-13T23:30:30.154Z,96630.91
2023-04-13T23:32:57.681Z,96625.22
2023-04-13T23:35:25.216Z,96631.31
2023-04-13T23:37:52.728Z,96632.88
2023-04-13T23:40:20.495Z,96633.69
2023-04-13T23:42:47.975Z,96630.84
2023-04-13T23:45:16.024Z,96616.81
2023-04-13T23:47:44.876Z,96620.25
2023-04-13T23:50:12.380Z,96617.59
2023-04-13T23:52:39.855Z,96620.16
2023-04-13T23:55:07.876Z,96629.09
2023-04-13T23:57:35.421Z,96624.22
